createdAt,value
2019-06-10T00:00:03.618Z,11.03
2019-06-10T00:02:35.068Z,9.23
2019-06-10T00:05:07.269Z,8.05
2019-06-10T00:07:37.723Z,9.43
2019-06-10T00:10:10.767Z,8.77
2019-06-10T00:12:41.936Z,6.23
2019-06-10T00:15:12.185Z,7.80
2019-06-10T00:17:53.117Z,6.40
2019-06-10T00:20:14.223Z,11.27
2019-06-10T00:22:44.902Z,6.33
2019-06-10T00:25:14.983Z,8.00
2019-06-10T00:27:45.007Z,7.37
2019-06-10T00:30:14.931Z,8.63
2019-06-10T00:32:44.967Z,11.67
2019-06-10T00:35:15.058Z,9.93
2019-06-10T00:37:45.166Z,11.37
2019-06-10T00:40:15.295Z,8.87
2019-06-10T00:42:45.778Z,9.80
2019-06-10T00:45:18.024Z,7.12
2019-06-10T00:47:47.765Z,12.60
2019-06-10T00:50:17.850Z,6.35
2019-06-10T00:52:47.888Z,7.90
2019-06-10T00:55:17.996Z,10.45
2019-06-10T00:57:48.102Z,7.87
2019-06-10T01:00:25.378Z,9.30
2019-06-10T01:02:51.795Z,9.63
2019-06-10T01:05:22.140Z,7.37
2019-06-10T01:07:52.250Z,10.20
2019-06-10T01:10:22.218Z,10.27
2019-06-10T01:12:52.102Z,5.75
2019-06-10T01:15:21.948Z,6.03
2019-06-10T01:17:52.071Z,6.60
2019-06-10T01:20:21.917Z,12.37
2019-06-10T01:22:51.985Z,12.10
2019-06-10T01:25:21.851Z,6.50
2019-06-10T01:27:51.865Z,8.80
2019-06-10T01:30:26.512Z,6.73
2019-06-10T01:32:53.671Z,7.83
2019-06-10T01:35:23.758Z,5.83
2019-06-10T01:37:53.842Z,4.40
2019-06-10T01:40:23.934Z,6.43
2019-06-10T01:42:53.938Z,7.73
2019-06-10T01:45:24.077Z,4.03
2019-06-10T01:47:54.145Z,7.10
2019-06-10T01:50:24.202Z,4.63
2019-06-10T01:52:54.287Z,9.87
2019-06-10T01:55:24.223Z,5.80
2019-06-10T01:57:54.294Z,6.50
2019-06-10T02:00:31.198Z,8.85
2019-06-10T02:03:03.363Z,7.27
2019-06-10T02:05:32.980Z,9.63
2019-06-10T02:08:03.115Z,5.53
2019-06-10T02:10:33.232Z,4.37
2019-06-10T02:13:03.377Z,12.97
2019-06-10T02:15:33.487Z,9.17
2019-06-10T02:18:03.958Z,5.72
2019-06-10T02:20:34.110Z,9.07
2019-06-10T02:23:04.666Z,6.40
2019-06-10T02:25:34.628Z,8.00
2019-06-10T02:28:06.045Z,9.15
2019-06-10T02:30:46.201Z,8.40
2019-06-10T02:33:11.953Z,14.37
2019-06-10T02:35:47.974Z,12.30
2019-06-10T02:38:16.787Z,10.63
2019-06-10T02:40:43.802Z,11.73
2019-06-10T02:43:19.970Z,9.60
2019-06-10T02:48:21.250Z,6.40
2019-06-10T02:51:15.166Z,11.00
2019-06-10T02:53:44.965Z,14.40
2019-06-10T02:56:17.293Z,9.33
2019-06-10T02:58:46.970Z,8.13
2019-06-10T03:01:19.940Z,8.88
2019-06-10T03:03:50.002Z,6.90
2019-06-10T03:06:29.822Z,10.27
2019-06-10T03:08:55.006Z,6.00
2019-06-10T03:11:29.627Z,6.67
2019-06-10T03:13:57.133Z,8.23
2019-06-10T03:16:33.064Z,6.40
2019-06-10T03:19:03.477Z,9.90
2019-06-10T03:21:33.801Z,8.23
2019-06-10T03:24:03.891Z,7.97
2019-06-10T03:26:34.182Z,6.63
2019-06-10T03:29:04.032Z,9.40
2019-06-10T03:31:41.295Z,6.63
2019-06-10T03:34:06.008Z,4.57
2019-06-10T03:36:36.116Z,8.73
2019-06-10T03:39:08.342Z,9.57
2019-06-10T03:41:38.741Z,7.90
2019-06-10T03:44:08.830Z,10.03
2019-06-10T03:46:38.859Z,8.53
2019-06-10T03:49:08.946Z,11.57
2019-06-10T03:51:39.072Z,10.10
2019-06-10T03:54:09.215Z,11.53
2019-06-10T03:56:39.302Z,9.20
2019-06-10T03:59:09.513Z,5.20
2019-06-10T04:01:42.699Z,11.43
2019-06-10T04:04:13.283Z,7.93
2019-06-10T04:06:44.449Z,9.30
2019-06-10T04:09:14.644Z,6.00
2019-06-10T04:11:44.779Z,7.67
2019-06-10T04:14:14.798Z,9.97
2019-06-10T04:16:44.847Z,10.53
2019-06-10T04:19:14.874Z,6.37
2019-06-10T04:21:44.946Z,8.47
2019-06-10T04:24:15.051Z,9.80
2019-06-10T04:26:45.134Z,7.67
2019-06-10T04:29:15.228Z,7.07
2019-06-10T04:31:45.302Z,6.87
2019-06-10T04:34:15.427Z,10.00
2019-06-10T04:36:45.925Z,9.57
2019-06-10T04:39:16.032Z,7.35
2019-06-10T04:41:46.109Z,7.20
2019-06-10T04:44:16.311Z,7.00
2019-06-10T04:46:46.406Z,6.83
2019-06-10T04:49:16.433Z,7.70
2019-06-10T04:51:46.501Z,7.57
2019-06-10T04:54:16.610Z,7.97
2019-06-10T04:56:46.687Z,8.00
2019-06-10T04:59:16.793Z,12.37
2019-06-10T05:01:46.849Z,13.40
2019-06-10T05:04:16.955Z,7.50
2019-06-10T05:06:47.032Z,8.53
2019-06-10T05:09:17.135Z,7.03
2019-06-10T05:11:47.203Z,10.10
2019-06-10T05:14:17.299Z,8.90
2019-06-10T05:16:47.722Z,7.60
2019-06-10T05:19:17.915Z,5.45
2019-06-10T05:21:48.068Z,8.83
2019-06-10T05:24:18.058Z,6.93
2019-06-10T05:26:48.190Z,7.03
2019-06-10T05:29:18.092Z,7.67
2019-06-10T05:31:48.053Z,11.83
2019-06-10T05:34:18.333Z,15.13
2019-06-10T05:36:48.417Z,10.53
2019-06-10T05:39:18.511Z,10.13
2019-06-10T05:41:50.183Z,11.07
2019-06-10T05:44:23.779Z,13.22
2019-06-10T05:46:52.874Z,24.10
2019-06-10T05:49:25.824Z,7.90
2019-06-10T05:51:55.697Z,11.47
2019-06-10T05:54:26.357Z,14.23
2019-06-10T05:56:57.461Z,17.50
2019-06-10T05:59:27.561Z,13.47
2019-06-10T06:01:57.885Z,13.90
2019-06-10T06:04:28.094Z,13.73
2019-06-10T06:06:58.228Z,8.80
2019-06-10T06:09:29.240Z,8.50
2019-06-10T06:11:59.490Z,22.17
2019-06-10T06:14:29.838Z,14.63
2019-06-10T06:17:02.281Z,18.17
2019-06-10T06:19:35.509Z,20.73
2019-06-10T06:22:05.635Z,9.93
2019-06-10T06:24:36.286Z,16.80
2019-06-10T06:27:06.187Z,18.23
2019-06-10T06:29:37.041Z,8.83
2019-06-10T06:32:08.638Z,14.57
2019-06-10T06:34:39.005Z,13.40
2019-06-10T06:37:09.111Z,11.43
2019-06-10T06:39:39.278Z,16.73
2019-06-10T06:42:09.734Z,10.53
2019-06-10T06:44:39.851Z,12.00
2019-06-10T06:47:09.954Z,9.23
2019-06-10T06:49:42.393Z,6.43
2019-06-10T06:52:12.810Z,4.83
2019-06-10T06:54:43.414Z,7.10
2019-06-10T06:57:13.599Z,5.83
2019-06-10T06:59:44.300Z,5.25
2019-06-10T07:02:14.403Z,4.77
2019-06-10T07:04:44.554Z,5.10
2019-06-10T07:07:16.502Z,6.00
2019-06-10T07:09:49.000Z,4.53
2019-06-10T07:12:23.042Z,5.50
2019-06-10T07:14:52.919Z,4.22
2019-06-10T07:17:23.003Z,3.30
2019-06-10T07:19:53.167Z,5.53
2019-06-10T07:22:23.471Z,6.53
2019-06-10T07:24:56.513Z,6.77
2019-06-10T07:27:27.000Z,3.37
2019-06-10T07:29:57.005Z,4.07
2019-06-10T07:32:27.025Z,4.47
2019-06-10T07:34:57.210Z,4.03
2019-06-10T07:37:29.509Z,3.00
2019-06-10T07:39:59.461Z,6.17
2019-06-10T07:42:29.632Z,2.57
2019-06-10T07:45:02.405Z,3.20
2019-06-10T07:47:32.673Z,3.63
2019-06-10T07:50:04.399Z,5.00
2019-06-10T07:52:35.864Z,5.47
2019-06-10T07:55:06.879Z,8.63
2019-06-10T07:57:37.725Z,5.80
2019-06-10T08:00:25.436Z,5.57
2019-06-10T08:02:56.687Z,6.47
2019-06-10T08:05:46.045Z,7.47
2019-06-10T08:08:20.223Z,3.95
2019-06-10T08:11:06.534Z,3.83
2019-06-10T08:13:53.970Z,7.97
2019-06-10T08:16:32.747Z,5.57
2019-06-10T08:19:34.889Z,6.70
2019-06-10T08:21:53.927Z,7.33
2019-06-10T08:24:24.239Z,3.60
2019-06-10T08:26:55.299Z,9.55
2019-06-10T08:29:28.712Z,4.53
2019-06-10T08:31:58.714Z,3.50
2019-06-10T08:34:40.823Z,2.60
2019-06-10T08:37:13.632Z,3.52
2019-06-10T08:39:45.697Z,2.50
2019-06-10T08:42:15.996Z,2.47
2019-06-10T08:44:48.531Z,4.00
2019-06-10T08:47:18.691Z,6.30
2019-06-10T08:49:49.183Z,4.47
2019-06-10T08:52:19.812Z,4.03
2019-06-10T08:57:28.126Z,2.85
2019-06-10T08:59:57.686Z,3.60
2019-06-10T09:02:27.211Z,6.10
2019-06-10T09:04:56.491Z,3.05
2019-06-10T09:07:25.965Z,2.97
2019-06-10T09:09:55.486Z,2.63
2019-06-10T09:12:55.754Z,4.47
2019-06-10T09:15:25.602Z,3.13
2019-06-10T09:17:56.121Z,4.20
2019-06-10T09:20:26.417Z,8.90
2019-06-10T09:23:16.782Z,2.63
2019-06-10T09:25:33.165Z,2.37
2019-06-10T09:28:02.512Z,3.47
2019-06-10T09:30:33.689Z,3.55
2019-06-10T09:33:04.852Z,3.30
2019-06-10T09:35:35.161Z,4.07
2019-06-10T09:38:06.504Z,3.42
2019-06-10T09:40:59.906Z,1.60
2019-06-10T09:43:32.998Z,3.30
2019-06-10T09:46:03.626Z,3.30
2019-06-10T09:48:33.830Z,3.37
2019-06-10T09:51:04.855Z,3.47
2019-06-10T09:53:42.694Z,3.70
2019-06-10T09:56:06.766Z,3.20
2019-06-10T09:58:40.908Z,3.62
2019-06-10T10:01:13.268Z,2.93
2019-06-10T10:03:47.909Z,3.87
2019-06-10T10:06:15.817Z,2.70
2019-06-10T10:08:49.351Z,3.70
2019-06-10T10:11:16.068Z,3.40
2019-06-10T10:13:49.223Z,4.10
2019-06-10T10:16:17.201Z,2.77
2019-06-10T10:18:49.480Z,4.37
2019-06-10T10:21:18.150Z,2.63
2019-06-10T10:23:54.244Z,2.72
2019-06-10T10:26:19.278Z,5.67
2019-06-10T10:28:51.761Z,3.80
2019-06-10T10:31:20.116Z,2.50
2019-06-10T10:33:50.556Z,5.40
2019-06-10T10:36:22.418Z,3.90
2019-06-10T10:38:52.277Z,3.50
2019-06-10T10:41:24.057Z,4.50
2019-06-10T10:43:58.226Z,5.67
2019-06-10T10:46:26.679Z,3.30
2019-06-10T10:48:56.710Z,3.57
2019-06-10T10:51:26.789Z,6.25
2019-06-10T10:54:20.717Z,3.97
2019-06-10T10:56:33.943Z,3.67
2019-06-10T10:59:03.795Z,3.47
2019-06-10T11:01:33.497Z,6.50
2019-06-10T11:04:03.925Z,3.10
2019-06-10T11:06:33.863Z,4.70
2019-06-10T11:09:04.619Z,3.93
2019-06-10T11:11:34.348Z,6.87
2019-06-10T11:14:04.484Z,4.87
2019-06-10T11:16:34.050Z,5.33
2019-06-10T11:19:04.047Z,5.60
2019-06-10T11:21:33.829Z,3.93
2019-06-10T11:24:04.819Z,5.33
2019-06-10T11:26:34.807Z,4.77
2019-06-10T11:29:05.272Z,2.10
2019-06-10T11:31:34.960Z,8.03
2019-06-10T11:34:05.455Z,2.93
2019-06-10T11:36:35.118Z,3.57
2019-06-10T11:39:07.823Z,4.53
2019-06-10T11:41:37.941Z,6.37
2019-06-10T11:44:07.503Z,5.90
2019-06-10T11:46:37.106Z,7.73
2019-06-10T11:49:06.445Z,2.93
2019-06-10T11:51:36.447Z,5.50
2019-06-10T11:54:06.451Z,4.07
2019-06-10T11:56:36.038Z,12.47
2019-06-10T11:59:09.628Z,10.98
2019-06-10T12:01:38.182Z,18.27
2019-06-10T12:04:08.352Z,7.37
2019-06-10T12:06:37.918Z,8.87
2019-06-10T12:09:09.239Z,10.70
2019-06-10T12:11:38.961Z,10.17
2019-06-10T12:14:09.000Z,8.43
2019-06-10T12:19:12.538Z,12.57
2019-06-10T12:21:43.481Z,8.87
2019-06-10T12:24:12.883Z,5.37
2019-06-10T12:26:43.599Z,14.43
2019-06-10T12:29:13.690Z,8.20
2019-06-10T12:31:43.454Z,16.33
2019-06-10T12:34:13.166Z,4.43
2019-06-10T12:36:42.798Z,5.67
2019-06-10T12:39:15.571Z,8.50
2019-06-10T12:42:14.342Z,13.37
2019-06-10T12:44:44.429Z,9.80
2019-06-10T12:47:14.061Z,6.92
2019-06-10T12:49:43.807Z,11.00
2019-06-10T12:52:13.286Z,9.80
2019-06-10T12:54:42.821Z,8.47
2019-06-10T12:57:12.504Z,3.50
2019-06-10T12:59:43.148Z,9.90
2019-06-10T13:02:22.538Z,8.13
2019-06-10T13:04:44.979Z,5.20
2019-06-10T13:07:15.578Z,4.77
2019-06-10T13:09:46.019Z,11.33
2019-06-10T13:12:15.630Z,10.20
2019-06-10T13:14:45.167Z,9.03
2019-06-10T13:17:14.511Z,7.87
2019-06-10T13:19:44.416Z,5.97
2019-06-10T13:22:13.743Z,8.80
2019-06-10T13:24:43.283Z,9.20
2019-06-10T13:27:12.943Z,6.93
2019-06-10T13:29:43.748Z,11.73
2019-06-10T13:32:13.820Z,8.17
2019-06-10T13:34:43.378Z,7.30
2019-06-10T13:37:16.104Z,7.95
2019-06-10T13:39:45.109Z,6.55
2019-06-10T13:42:15.088Z,8.58
2019-06-10T13:44:46.133Z,12.33
2019-06-10T13:47:15.632Z,7.95
2019-06-10T13:49:45.177Z,8.97
2019-06-10T13:52:16.895Z,9.33
2019-06-10T13:54:46.227Z,11.63
2019-06-10T13:57:16.257Z,8.68
2019-06-10T13:59:46.582Z,13.27
2019-06-10T14:02:16.617Z,10.07
2019-06-10T14:04:46.166Z,7.10
2019-06-10T14:07:17.342Z,9.90
2019-06-10T14:09:46.974Z,8.73
2019-06-10T14:12:17.633Z,8.20
2019-06-10T14:14:47.367Z,10.40
2019-06-10T14:17:19.417Z,9.00
2019-06-10T14:19:48.219Z,15.70
2019-06-10T14:22:17.767Z,14.33
2019-06-10T14:24:47.657Z,9.88
2019-06-10T14:27:21.191Z,16.53
2019-06-10T14:29:48.480Z,13.77
2019-06-10T14:32:17.927Z,16.23
2019-06-10T14:34:47.564Z,14.20
2019-06-10T14:37:32.232Z,15.50
2019-06-10T14:39:48.167Z,14.83
2019-06-10T14:42:17.720Z,12.47
2019-06-10T14:44:47.302Z,19.03
2019-06-10T14:47:16.945Z,14.50
2019-06-10T14:49:47.074Z,13.30
2019-06-10T14:52:16.895Z,18.80
2019-06-10T14:54:46.942Z,14.03
2019-06-10T14:57:16.827Z,14.47
2019-06-10T14:59:47.045Z,16.73
2019-06-10T15:02:17.508Z,15.50
2019-06-10T15:04:47.576Z,20.87
2019-06-10T15:07:17.216Z,13.53
2019-06-10T15:09:46.786Z,18.03
2019-06-10T15:12:18.109Z,19.30
2019-06-10T15:14:47.692Z,14.40
2019-06-10T15:17:18.778Z,20.10
2019-06-10T15:19:48.783Z,15.30
2019-06-10T15:22:18.227Z,17.43
2019-06-10T15:24:47.798Z,18.10
2019-06-10T15:27:26.676Z,17.43
2019-06-10T15:29:48.341Z,15.35
2019-06-10T15:32:32.896Z,17.15
2019-06-10T15:34:49.346Z,17.47
2019-06-10T15:37:20.750Z,16.37
2019-06-10T15:39:52.694Z,19.97
2019-06-10T15:42:22.561Z,20.30
2019-06-10T15:44:55.866Z,14.43
2019-06-10T15:47:26.340Z,20.08
2019-06-10T15:49:55.029Z,13.23
2019-06-10T15:52:25.252Z,18.97
2019-06-10T15:54:55.118Z,16.90
2019-06-10T15:57:38.913Z,17.10
2019-06-10T15:59:56.602Z,13.22
2019-06-10T16:02:26.330Z,21.47
2019-06-10T16:04:56.163Z,19.80
2019-06-10T16:07:25.763Z,16.07
2019-06-10T16:09:55.379Z,18.43
2019-06-10T16:12:26.949Z,20.13
2019-06-10T16:14:56.908Z,12.50
2019-06-10T16:17:29.802Z,17.37
2019-06-10T16:19:58.079Z,16.32
2019-06-10T16:22:28.327Z,16.57
2019-06-10T16:24:58.227Z,13.93
2019-06-10T16:27:43.539Z,13.20
2019-06-10T16:29:59.401Z,14.20
2019-06-10T16:32:29.231Z,9.23
2019-06-10T16:34:58.804Z,14.97
2019-06-10T16:37:28.508Z,15.53
2019-06-10T16:39:58.092Z,18.43
2019-06-10T16:42:27.739Z,11.37
2019-06-10T16:44:57.335Z,15.23
2019-06-10T16:47:27.402Z,17.90
2019-06-10T16:49:57.120Z,13.07
2019-06-10T16:52:27.542Z,14.75
2019-06-10T16:54:57.364Z,13.27
2019-06-10T16:57:27.335Z,17.70
2019-06-10T16:59:57.245Z,16.27
2019-06-10T17:02:26.983Z,13.97
2019-06-10T17:04:58.458Z,17.45
2019-06-10T17:07:29.183Z,13.10
2019-06-10T17:10:02.274Z,14.53
2019-06-10T17:12:33.076Z,15.20
2019-06-10T17:15:03.562Z,15.45
2019-06-10T17:17:33.506Z,12.43
2019-06-10T17:20:03.810Z,18.20
2019-06-10T17:22:33.592Z,20.97
2019-06-10T17:25:03.372Z,12.53
2019-06-10T17:27:33.088Z,9.40
2019-06-10T17:30:02.994Z,12.37
2019-06-10T17:32:32.985Z,7.80
2019-06-10T17:35:03.266Z,8.43
2019-06-10T17:37:33.682Z,8.70
2019-06-10T17:40:03.711Z,9.83
2019-06-10T17:42:38.194Z,9.00
2019-06-10T17:45:06.287Z,11.55
2019-06-10T17:47:35.915Z,13.57
2019-06-10T17:50:07.396Z,10.27
2019-06-10T17:52:38.844Z,15.77
2019-06-10T17:55:08.471Z,24.43
2019-06-10T17:57:37.996Z,19.87
2019-06-10T18:00:12.253Z,26.43
2019-06-10T18:02:42.822Z,30.00
2019-06-10T18:05:12.881Z,25.60
2019-06-10T18:07:42.841Z,19.10
2019-06-10T18:10:13.490Z,26.57
2019-06-10T18:12:43.123Z,23.97
2019-06-10T18:15:12.854Z,27.13
2019-06-10T18:17:42.705Z,23.27
2019-06-10T18:20:13.667Z,21.10
2019-06-10T18:22:43.398Z,9.80
2019-06-10T18:25:14.358Z,10.20
2019-06-10T18:27:43.974Z,14.27
2019-06-10T18:30:14.645Z,15.53
2019-06-10T18:32:44.282Z,7.70
2019-06-10T18:35:14.415Z,8.17
2019-06-10T18:37:44.166Z,7.10
2019-06-10T18:40:14.626Z,6.37
2019-06-10T18:42:44.444Z,9.27
2019-06-10T18:45:14.128Z,7.00
2019-06-10T18:47:44.228Z,7.37
2019-06-10T18:50:14.329Z,9.10
2019-06-10T18:52:43.904Z,6.70
2019-06-10T18:55:14.603Z,7.87
2019-06-10T18:57:44.222Z,7.67
2019-06-10T19:00:16.722Z,9.73
2019-06-10T19:02:46.224Z,7.77
2019-06-10T19:05:16.522Z,11.03
2019-06-10T19:07:46.889Z,12.27
2019-06-10T19:10:16.917Z,9.77
2019-06-10T19:12:46.835Z,16.60
2019-06-10T19:15:16.957Z,17.52
2019-06-10T19:18:43.084Z,16.17
2019-06-10T19:21:12.903Z,13.60
2019-06-10T19:24:19.863Z,18.15
2019-06-10T19:26:49.540Z,27.23
2019-06-10T19:29:30.756Z,20.12
2019-06-10T19:31:52.482Z,20.70
2019-06-10T19:34:22.486Z,19.50
2019-06-10T19:36:52.803Z,29.80
2019-06-10T19:39:22.398Z,22.77
2019-06-10T19:41:52.980Z,31.33
2019-06-10T19:44:23.414Z,24.10
2019-06-10T19:46:53.413Z,37.03
2019-06-10T19:49:23.019Z,29.87
2019-06-10T19:51:58.902Z,26.93
2019-06-10T19:54:24.296Z,30.33
2019-06-10T19:56:53.664Z,25.40
2019-06-10T19:59:23.319Z,22.87
2019-06-10T20:01:54.132Z,29.43
2019-06-10T20:04:24.513Z,26.40
2019-06-10T20:06:54.127Z,21.77
2019-06-10T20:09:23.686Z,30.07
2019-06-10T20:11:53.575Z,30.77
2019-06-10T20:14:23.316Z,34.53
2019-06-10T20:16:53.467Z,21.97
2019-06-10T20:19:23.193Z,28.27
2019-06-10T20:21:52.745Z,22.80
2019-06-10T20:24:22.436Z,21.40
2019-06-10T20:26:52.986Z,30.07
2019-06-10T20:29:22.834Z,25.60
2019-06-10T20:31:52.637Z,29.23
2019-06-10T20:34:25.295Z,74.57
2019-06-10T20:36:53.846Z,48.30
2019-06-10T20:39:24.794Z,60.25
2019-06-10T20:41:55.762Z,46.83
2019-06-10T20:44:25.988Z,33.17
2019-06-10T20:46:55.360Z,36.10
2019-06-10T20:49:24.969Z,51.67
2019-06-10T20:52:06.661Z,49.27
2019-06-10T20:54:25.753Z,35.17
2019-06-10T20:56:55.003Z,92.90
2019-06-10T20:59:25.954Z,41.47
2019-06-10T21:01:55.783Z,62.87
2019-06-10T21:04:25.108Z,57.85
2019-06-10T21:06:56.691Z,39.20
2019-06-10T21:09:27.680Z,104.67
2019-06-10T21:11:57.244Z,54.83
2019-06-10T21:14:26.974Z,32.03
2019-06-10T21:16:56.832Z,109.35
2019-06-10T21:19:26.609Z,59.57
2019-06-10T21:21:56.185Z,48.90
2019-06-10T21:24:25.760Z,32.50
2019-06-10T21:26:55.881Z,96.07
2019-06-10T21:29:25.483Z,46.30
2019-06-10T21:31:55.226Z,29.93
2019-06-10T21:34:25.101Z,27.53
2019-06-10T21:36:54.674Z,22.63
2019-06-10T21:39:24.740Z,30.47
2019-06-10T21:41:54.939Z,28.92
2019-06-10T21:44:24.564Z,29.87
2019-06-10T21:46:54.134Z,28.90
2019-06-10T21:49:24.054Z,32.40
2019-06-10T21:51:56.816Z,37.83
2019-06-10T21:54:25.325Z,34.17
2019-06-10T21:56:55.567Z,25.13
2019-06-10T21:59:25.421Z,20.63
2019-06-10T22:01:54.902Z,33.90
2019-06-10T22:04:24.169Z,31.10
2019-06-10T22:06:56.014Z,44.83
2019-06-10T22:09:25.210Z,39.13
2019-06-10T22:11:55.859Z,41.95
2019-06-10T22:14:25.683Z,40.27
2019-06-10T22:16:56.507Z,42.13
2019-06-10T22:19:26.437Z,42.60
2019-06-10T22:21:56.781Z,46.33
2019-06-10T22:24:26.665Z,37.37
2019-06-10T22:26:56.238Z,39.10
2019-06-10T22:29:25.801Z,30.97
2019-06-10T22:31:57.038Z,43.17
2019-06-10T22:34:26.557Z,34.60
2019-06-10T22:36:57.575Z,46.10
2019-06-10T22:39:27.345Z,46.17
2019-06-10T22:41:57.155Z,44.93
2019-06-10T22:44:27.216Z,49.70
2019-06-10T22:46:57.199Z,51.77
2019-06-10T22:49:27.001Z,51.70
2019-06-10T22:51:58.542Z,34.85
2019-06-10T22:54:28.062Z,36.93
2019-06-10T22:56:58.484Z,46.65
2019-06-10T22:59:29.070Z,39.35
2019-06-10T23:01:59.972Z,43.67
2019-06-10T23:04:32.980Z,33.30
2019-06-10T23:07:03.089Z,37.03
2019-06-10T23:09:32.932Z,40.53
2019-06-10T23:12:02.992Z,34.37
2019-06-10T23:14:33.206Z,40.40
2019-06-10T23:17:03.317Z,40.00
2019-06-10T23:19:33.317Z,38.60
2019-06-10T23:22:03.341Z,37.73
2019-06-10T23:24:32.948Z,37.13
2019-06-10T23:27:03.188Z,39.75
2019-06-10T23:29:33.137Z,36.40
2019-06-10T23:32:06.797Z,30.52
2019-06-10T23:34:34.312Z,30.07
2019-06-10T23:37:03.959Z,35.30
2019-06-10T23:39:33.717Z,39.00
2019-06-10T23:42:04.345Z,34.57
2019-06-10T23:44:34.321Z,40.07
2019-06-10T23:47:04.189Z,34.53
2019-06-10T23:49:33.984Z,37.47
2019-06-10T23:52:05.325Z,37.27
2019-06-10T23:54:34.805Z,34.57
2019-06-10T23:57:06.388Z,34.73
2019-06-10T23:59:36.198Z,39.63
